createdAt,value
2019-03-13T00:00:45.324Z,95162.81
2019-03-13T00:03:14.751Z,95157.36
2019-03-13T00:05:43.424Z,95149.38
2019-03-13T00:08:12.108Z,95151.85
2019-03-13T00:10:40.845Z,95156.39
2019-03-13T00:13:09.502Z,95143.47
2019-03-13T00:15:38.183Z,95140.05
2019-03-13T00:18:06.933Z,95140.46
2019-03-13T00:20:35.599Z,95125.84
2019-03-13T00:23:04.441Z,95125.41
2019-03-13T00:25:33.088Z,95122.00
2019-03-13T00:28:01.668Z,95126.44
2019-03-13T00:30:30.173Z,95117.68
2019-03-13T00:32:58.996Z,95124.38
2019-03-13T00:35:27.747Z,95113.92
2019-03-13T00:37:56.829Z,95105.57
2019-03-13T00:40:25.539Z,95101.69
2019-03-13T00:42:54.257Z,95100.78
2019-03-13T00:45:25.760Z,95091.67
2019-03-13T00:47:54.725Z,95085.77
2019-03-13T00:50:25.686Z,95079.48
2019-03-13T00:52:54.452Z,95069.84
2019-03-13T00:55:23.129Z,95068.16
2019-03-13T00:57:51.770Z,95065.21
2019-03-13T01:00:38.603Z,95063.55
2019-03-13T01:03:08.942Z,95053.55
2019-03-13T01:05:42.101Z,95055.48
2019-03-13T01:08:10.818Z,95048.79
2019-03-13T01:10:39.382Z,95046.09
2019-03-13T01:13:08.220Z,95044.84
2019-03-13T01:15:36.798Z,95036.56
2019-03-13T01:18:05.442Z,95034.05
2019-03-13T01:20:34.112Z,95035.75
2019-03-13T01:23:02.818Z,95029.05
2019-03-13T01:25:31.578Z,95021.08
2019-03-13T01:28:00.288Z,95022.70
2019-03-13T01:30:30.708Z,95018.08
2019-03-13T01:33:00.990Z,95006.03
2019-03-13T01:35:33.985Z,95008.53
2019-03-13T01:38:02.698Z,95008.97
2019-03-13T01:40:31.324Z,95007.78
2019-03-13T01:42:59.975Z,95006.53
2019-03-13T01:45:28.671Z,95005.34
2019-03-13T01:47:57.379Z,95008.69
2019-03-13T01:50:26.095Z,95003.75
2019-03-13T01:52:54.751Z,95004.62
2019-03-13T01:55:23.480Z,94997.52
2019-03-13T01:57:52.120Z,94992.17
2019-03-13T02:00:20.829Z,94994.73
2019-03-13T02:02:49.462Z,94996.01
2019-03-13T02:05:18.442Z,95003.64
2019-03-13T02:07:47.137Z,94995.78
2019-03-13T02:10:16.013Z,94989.18
2019-03-13T02:12:44.716Z,94987.61
2019-03-13T02:15:16.254Z,94980.22
2019-03-13T02:17:44.895Z,94979.90
2019-03-13T02:20:14.230Z,94974.13
2019-03-13T02:22:42.935Z,94971.77
2019-03-13T02:25:13.518Z,94965.28
2019-03-13T02:27:42.382Z,94957.50
2019-03-13T02:30:17.121Z,94949.66
2019-03-13T02:32:45.975Z,94951.47
2019-03-13T02:35:14.747Z,94944.06
2019-03-13T02:37:43.320Z,94948.75
2019-03-13T02:40:13.895Z,94938.78
2019-03-13T02:42:42.523Z,94937.67
2019-03-13T02:45:13.235Z,94932.31
2019-03-13T02:47:42.000Z,94936.98
2019-03-13T02:50:18.741Z,94933.77
2019-03-13T02:52:47.375Z,94932.58
2019-03-13T02:55:16.010Z,94927.70
2019-03-13T02:57:50.234Z,94922.71
2019-03-13T03:00:26.836Z,94923.72
2019-03-13T03:02:57.000Z,94927.63
2019-03-13T03:05:25.910Z,94927.39
2019-03-13T03:07:54.712Z,94923.42
2019-03-13T03:10:23.489Z,94922.30
2019-03-13T03:12:52.213Z,94920.38
2019-03-13T03:15:21.007Z,94910.47
2019-03-13T03:17:49.801Z,94901.48
2019-03-13T03:20:20.772Z,94903.73
2019-03-13T03:22:49.667Z,94903.92
2019-03-13T03:25:19.234Z,94902.48
2019-03-13T03:27:47.833Z,94900.94
2019-03-13T03:30:21.656Z,94900.20
2019-03-13T03:32:50.851Z,94895.72
2019-03-13T03:35:19.585Z,94899.61
2019-03-13T03:37:48.353Z,94893.51
2019-03-13T03:40:22.556Z,94890.75
2019-03-13T03:42:49.196Z,94887.51
2019-03-13T03:45:17.976Z,94888.45
2019-03-13T03:47:46.618Z,94884.76
2019-03-13T03:50:16.943Z,94883.66
2019-03-13T03:52:46.007Z,94883.36
2019-03-13T03:55:16.167Z,94871.73
2019-03-13T03:57:45.239Z,94865.56
2019-03-13T04:00:19.119Z,94856.04
2019-03-13T04:02:47.815Z,94852.75
2019-03-13T04:05:17.113Z,94844.90
2019-03-13T04:07:45.740Z,94841.97
2019-03-13T04:10:15.557Z,94839.09
2019-03-13T04:12:44.178Z,94856.30
2019-03-13T04:15:14.247Z,94858.81
2019-03-13T04:17:42.955Z,94848.44
2019-03-13T04:20:13.148Z,94850.13
2019-03-13T04:22:41.691Z,94850.17
2019-03-13T04:25:22.112Z,94843.06
2019-03-13T04:27:50.850Z,94840.17
2019-03-13T04:30:19.487Z,94841.11
2019-03-13T04:32:48.093Z,94840.79
2019-03-13T04:35:16.742Z,94825.76
2019-03-13T04:37:45.374Z,94835.06
2019-03-13T04:40:15.515Z,94833.86
2019-03-13T04:42:44.297Z,94820.94
2019-03-13T04:45:13.216Z,94818.93
2019-03-13T04:47:41.883Z,94808.13
2019-03-13T04:50:12.040Z,94814.96
2019-03-13T04:52:40.468Z,94811.23
2019-03-13T04:55:10.581Z,94809.61
2019-03-13T04:57:39.261Z,94812.67
2019-03-13T05:00:21.164Z,94805.19
2019-03-13T05:02:50.180Z,94808.16
2019-03-13T05:05:42.441Z,94798.98
2019-03-13T05:08:14.019Z,94792.73
2019-03-13T05:10:42.663Z,94788.13
2019-03-13T05:13:11.352Z,94799.94
2019-03-13T05:15:40.308Z,94797.06
2019-03-13T05:18:09.242Z,94792.49
2019-03-13T05:20:37.854Z,94796.77
2019-03-13T05:23:06.558Z,94796.81
2019-03-13T05:25:35.213Z,94793.13
2019-03-13T05:28:03.827Z,94785.65
2019-03-13T05:30:37.709Z,94790.34
2019-03-13T05:33:06.387Z,94780.32
2019-03-13T05:35:35.079Z,94779.15
2019-03-13T05:38:03.680Z,94773.80
2019-03-13T05:40:32.286Z,94773.89
2019-03-13T05:43:01.049Z,94774.03
2019-03-13T05:45:29.779Z,94772.84
2019-03-13T05:47:58.403Z,94772.95
2019-03-13T05:50:31.431Z,94768.84
2019-03-13T05:52:58.886Z,94770.63
2019-03-13T05:55:27.503Z,94770.31
2019-03-13T05:57:56.218Z,94769.54
2019-03-13T06:00:25.527Z,94767.95
2019-03-13T06:02:54.393Z,94771.77
2019-03-13T06:05:23.013Z,94765.64
2019-03-13T06:07:51.783Z,94773.30
2019-03-13T06:10:20.583Z,94764.05
2019-03-13T06:12:49.267Z,94762.80
2019-03-13T06:15:17.901Z,94760.73
2019-03-13T06:17:46.545Z,94767.48
2019-03-13T06:20:20.112Z,94765.37
2019-03-13T06:22:48.729Z,94763.34
2019-03-13T06:25:17.348Z,94762.53
2019-03-13T06:27:46.778Z,94758.36
2019-03-13T06:30:20.524Z,94755.03
2019-03-13T06:32:49.191Z,94750.47
2019-03-13T06:35:17.790Z,94754.77
2019-03-13T06:37:46.339Z,94757.73
2019-03-13T06:40:21.939Z,94764.09
2019-03-13T06:42:50.641Z,94768.38
2019-03-13T06:45:19.291Z,94769.72
2019-03-13T06:47:47.929Z,94763.95
2019-03-13T06:50:24.634Z,94770.36
2019-03-13T06:52:53.249Z,94751.94
2019-03-13T06:55:21.889Z,94754.94
2019-03-13T06:57:50.594Z,94747.86
2019-03-13T07:00:41.951Z,94750.37
2019-03-13T07:03:14.944Z,94758.00
2019-03-13T07:05:45.155Z,94760.17
2019-03-13T07:08:18.112Z,94761.50
2019-03-13T07:11:08.391Z,94760.71
2019-03-13T07:13:41.860Z,94757.37
2019-03-13T07:16:12.823Z,94755.69
2019-03-13T07:18:49.097Z,94759.94
2019-03-13T07:21:19.351Z,94761.22
2019-03-13T07:24:04.859Z,94756.61
2019-03-13T07:26:38.351Z,94757.47
2019-03-13T07:29:12.389Z,94755.39
2019-03-13T07:31:40.680Z,94751.19
2019-03-13T07:34:13.408Z,94758.83
2019-03-13T07:37:00.134Z,94757.60
2019-03-13T07:39:39.513Z,94756.81
2019-03-13T07:42:12.543Z,94756.86
2019-03-13T07:44:55.183Z,94754.80
2019-03-13T07:47:43.321Z,94750.63
2019-03-13T07:50:13.718Z,94745.62
2019-03-13T07:52:55.781Z,94738.93
2019-03-13T07:55:38.257Z,94739.81
2019-03-13T07:58:17.059Z,94743.64
2019-03-13T08:00:51.146Z,94742.02
2019-03-13T08:03:23.751Z,94739.09
2019-03-13T08:05:59.880Z,94741.20
2019-03-13T08:08:33.030Z,94746.71
2019-03-13T08:11:19.309Z,94743.76
2019-03-13T08:14:07.775Z,94742.52
2019-03-13T08:16:44.101Z,94740.03
2019-03-13T08:19:32.640Z,94747.17
2019-03-13T08:22:06.032Z,94751.81
2019-03-13T08:24:39.248Z,94748.02
2019-03-13T08:27:09.463Z,94744.23
2019-03-13T08:29:56.112Z,94740.45
2019-03-13T08:32:35.532Z,94734.17
2019-03-13T08:35:18.390Z,94735.46
2019-03-13T08:38:06.950Z,94740.95
2019-03-13T08:40:39.996Z,94735.11
2019-03-13T08:43:21.917Z,94738.52
2019-03-13T08:46:08.121Z,94738.95
2019-03-13T08:48:44.173Z,94744.86
2019-03-13T08:51:30.828Z,94745.73
2019-03-13T08:54:17.457Z,94759.65
2019-03-13T08:56:47.689Z,94761.33
2019-03-13T08:59:23.436Z,94765.56
2019-03-13T09:01:52.997Z,94756.70
2019-03-13T09:04:25.908Z,94766.80
2019-03-13T09:07:12.564Z,94777.77
2019-03-13T09:09:45.850Z,94775.23
2019-03-13T09:12:25.328Z,94779.05
2019-03-13T09:14:58.369Z,94789.98
2019-03-13T09:17:41.009Z,94797.11
2019-03-13T09:20:20.551Z,94807.16
2019-03-13T09:22:53.434Z,94818.42
2019-03-13T09:25:23.539Z,94827.95
2019-03-13T09:28:05.455Z,94831.65
2019-03-13T09:30:54.000Z,94837.84
2019-03-13T09:33:24.173Z,94840.69
2019-03-13T09:35:54.457Z,94839.31
2019-03-13T09:38:30.686Z,94836.68
2019-03-13T09:41:17.176Z,94839.92
2019-03-13T09:44:02.417Z,94838.64
2019-03-13T09:46:35.833Z,94839.48
2019-03-13T09:49:17.962Z,94831.44
2019-03-13T09:51:48.234Z,94830.11
2019-03-13T09:54:27.434Z,94832.58
2019-03-13T09:57:13.985Z,94828.34
2019-03-13T09:59:59.201Z,94822.03
2019-03-13T10:02:32.169Z,94827.95
2019-03-13T10:05:02.419Z,94828.44
2019-03-13T10:07:44.510Z,94825.13
2019-03-13T10:10:27.544Z,94822.66
2019-03-13T10:12:57.795Z,94823.96
2019-03-13T10:15:28.077Z,94818.14
2019-03-13T10:18:14.459Z,94818.63
2019-03-13T10:20:47.467Z,94820.35
2019-03-13T10:23:20.689Z,94814.50
2019-03-13T10:25:53.676Z,94817.92
2019-03-13T10:28:23.924Z,94815.44
2019-03-13T10:30:57.238Z,94809.19
2019-03-13T10:33:33.238Z,94810.91
2019-03-13T10:36:03.615Z,94802.14
2019-03-13T10:38:50.082Z,94803.05
2019-03-13T10:41:35.657Z,94806.05
2019-03-13T10:44:23.866Z,94803.60
2019-03-13T10:46:54.948Z,94808.30
2019-03-13T10:49:31.342Z,94804.56
2019-03-13T10:52:10.910Z,94799.52
2019-03-13T10:54:43.939Z,94802.93
2019-03-13T10:57:23.407Z,94803.38
2019-03-13T11:00:10.046Z,94797.92
2019-03-13T11:02:52.245Z,94792.89
2019-03-13T11:05:22.504Z,94792.48
2019-03-13T11:08:01.692Z,94792.92
2019-03-13T11:10:44.006Z,94790.45
2019-03-13T11:13:14.251Z,94787.07
2019-03-13T11:15:59.017Z,94788.78
2019-03-13T11:18:38.109Z,94788.81
2019-03-13T11:21:08.373Z,94781.24
2019-03-13T11:23:38.751Z,94779.59
2019-03-13T11:26:14.970Z,94774.55
2019-03-13T11:28:48.106Z,94783.02
2019-03-13T11:31:18.365Z,94787.67
2019-03-13T11:33:54.646Z,94779.68
2019-03-13T11:36:24.872Z,94780.95
2019-03-13T11:39:07.390Z,94784.74
2019-03-13T11:41:55.856Z,94784.31
2019-03-13T11:44:32.069Z,94784.73
2019-03-13T11:47:05.411Z,94781.75
2019-03-13T11:49:44.905Z,94782.19
2019-03-13T11:52:33.411Z,94779.64
2019-03-13T11:55:06.559Z,94777.95
2019-03-13T11:57:55.144Z,94784.70
2019-03-13T12:00:41.449Z,94775.84
2019-03-13T12:03:17.729Z,94771.63
2019-03-13T12:05:47.988Z,94770.38
2019-03-13T12:08:24.210Z,94763.59
2019-03-13T12:11:03.630Z,94764.84
2019-03-13T12:13:36.691Z,94765.23
2019-03-13T12:16:22.135Z,94758.48
2019-03-13T12:19:08.681Z,94761.88
2019-03-13T12:21:57.214Z,94759.34
2019-03-13T12:24:31.662Z,94750.50
2019-03-13T12:27:18.015Z,94751.33
2019-03-13T12:30:00.318Z,94748.83
2019-03-13T12:32:33.672Z,94745.03
2019-03-13T12:35:18.922Z,94746.31
2019-03-13T12:37:51.921Z,94743.80
2019-03-13T12:40:25.438Z,94742.09
2019-03-13T12:43:07.573Z,94734.94
2019-03-13T12:45:54.288Z,94734.92
2019-03-13T12:48:24.555Z,94727.77
2019-03-13T12:50:54.927Z,94724.80
2019-03-13T12:53:25.209Z,94726.94
2019-03-13T12:56:10.685Z,94728.20
2019-03-13T12:58:52.761Z,94731.17
2019-03-13T13:01:22.998Z,94732.02
2019-03-13T13:03:53.423Z,94734.13
2019-03-13T13:06:26.798Z,94736.67
2019-03-13T13:09:03.149Z,94735.41
2019-03-13T13:11:48.702Z,94741.73
2019-03-13T13:14:25.061Z,94739.63
2019-03-13T13:16:59.846Z,94736.26
2019-03-13T13:19:28.444Z,94735.84
2019-03-13T13:21:57.024Z,94732.45
2019-03-13T13:24:25.626Z,94729.08
2019-03-13T13:26:54.263Z,94725.27
2019-03-13T13:29:22.945Z,94727.39
2019-03-13T13:31:51.549Z,94724.84
2019-03-13T13:34:20.238Z,94718.11
2019-03-13T13:36:48.771Z,94715.16
2019-03-13T13:39:17.302Z,94713.45
2019-03-13T13:41:48.667Z,94713.47
2019-03-13T13:44:17.563Z,94710.92
2019-03-13T13:46:46.177Z,94709.25
2019-03-13T13:49:14.807Z,94709.66
2019-03-13T13:51:43.419Z,94698.66
2019-03-13T13:54:11.956Z,94694.05
2019-03-13T13:56:40.499Z,94702.89
2019-03-13T13:59:09.293Z,94707.53
2019-03-13T14:01:38.051Z,94713.05
2019-03-13T14:04:06.891Z,94716.42
2019-03-13T14:06:35.495Z,94718.09
2019-03-13T14:09:06.367Z,94717.23
2019-03-13T14:11:34.931Z,94716.41
2019-03-13T14:14:03.537Z,94714.72
2019-03-13T14:16:32.173Z,94719.79
2019-03-13T14:19:00.803Z,94721.04
2019-03-13T14:21:29.416Z,94721.06
2019-03-13T14:23:58.024Z,94714.28
2019-03-13T14:26:26.967Z,94714.69
2019-03-13T14:28:55.491Z,94715.52
2019-03-13T14:31:24.036Z,94718.91
2019-03-13T14:33:52.582Z,94722.71
2019-03-13T14:36:21.486Z,94720.61
2019-03-13T14:38:50.090Z,94726.50
2019-03-13T14:41:18.561Z,94724.38
2019-03-13T14:43:47.090Z,94723.52
2019-03-13T14:46:15.800Z,94711.70
2019-03-13T14:48:44.330Z,94721.01
2019-03-13T14:51:14.407Z,94727.77
2019-03-13T14:53:42.952Z,94720.98
2019-03-13T14:56:11.570Z,94713.39
2019-03-13T14:58:40.073Z,94707.48
2019-03-13T15:01:08.644Z,94709.61
2019-03-13T15:03:37.287Z,94701.58
2019-03-13T15:06:05.964Z,94698.22
2019-03-13T15:08:35.936Z,94688.48
2019-03-13T15:11:04.548Z,94685.97
2019-03-13T15:13:33.086Z,94697.38
2019-03-13T15:16:01.699Z,94688.52
2019-03-13T15:18:30.302Z,94682.20
2019-03-13T15:20:58.847Z,94683.88
2019-03-13T15:23:27.521Z,94680.49
2019-03-13T15:25:56.285Z,94690.65
2019-03-13T15:28:24.852Z,94688.54
2019-03-13T15:30:53.432Z,94693.59
2019-03-13T15:33:22.004Z,94686.44
2019-03-13T15:35:50.606Z,94691.88
2019-03-13T15:38:19.094Z,94685.56
2019-03-13T15:40:47.740Z,94679.64
2019-03-13T15:43:16.500Z,94680.08
2019-03-13T15:45:45.066Z,94681.77
2019-03-13T15:48:13.708Z,94677.56
2019-03-13T15:50:42.335Z,94677.99
2019-03-13T15:53:10.882Z,94675.45
2019-03-13T15:55:43.499Z,94675.05
2019-03-13T15:58:12.032Z,94683.49
2019-03-13T16:00:40.632Z,94688.56
2019-03-13T16:03:09.358Z,94694.03
2019-03-13T16:05:38.293Z,94696.56
2019-03-13T16:08:06.762Z,94706.70
2019-03-13T16:10:35.320Z,94706.68
2019-03-13T16:13:05.751Z,94705.41
2019-03-13T16:15:38.742Z,94709.63
2019-03-13T16:18:07.464Z,94715.12
2019-03-13T16:20:36.136Z,94710.46
2019-03-13T16:23:05.242Z,94703.30
2019-03-13T16:25:34.010Z,94715.09
2019-03-13T16:28:02.647Z,94714.67
2019-03-13T16:30:33.295Z,94710.45
2019-03-13T16:33:02.221Z,94717.63
2019-03-13T16:35:30.867Z,94715.91
2019-03-13T16:37:59.404Z,94716.34
2019-03-13T16:40:31.527Z,94719.72
2019-03-13T16:42:58.590Z,94722.23
2019-03-13T16:45:27.201Z,94728.14
2019-03-13T16:47:56.410Z,94728.13
2019-03-13T16:50:33.310Z,94734.43
2019-03-13T16:53:02.023Z,94733.59
2019-03-13T16:55:30.692Z,94731.48
2019-03-13T16:57:59.428Z,94732.32
2019-03-13T17:00:29.558Z,94732.28
2019-03-13T17:02:58.162Z,94736.06
2019-03-13T17:05:27.001Z,94732.68
2019-03-13T17:07:58.632Z,94732.66
2019-03-13T17:10:30.564Z,94738.15
2019-03-13T17:12:59.238Z,94732.22
2019-03-13T17:15:28.141Z,94732.61
2019-03-13T17:17:56.886Z,94724.58
2019-03-13T17:20:36.832Z,94718.66
2019-03-13T17:23:05.839Z,94717.38
2019-03-13T17:25:34.485Z,94718.20
2019-03-13T17:28:03.156Z,94725.36
2019-03-13T17:30:32.446Z,94729.13
2019-03-13T17:33:01.611Z,94732.48
2019-03-13T17:35:30.226Z,94732.03
2019-03-13T17:37:58.945Z,94735.84
2019-03-13T17:40:29.643Z,94731.17
2019-03-13T17:42:58.723Z,94736.63
2019-03-13T17:45:27.427Z,94734.49
2019-03-13T17:47:56.036Z,94736.55
2019-03-13T17:50:25.928Z,94736.52
2019-03-13T17:52:54.590Z,94734.87
2019-03-13T17:55:24.615Z,94731.58
2019-03-13T17:57:53.339Z,94738.31
2019-03-13T18:00:32.240Z,94739.58
2019-03-13T18:03:00.950Z,94744.20
2019-03-13T18:05:29.697Z,94733.59
2019-03-13T18:07:58.319Z,94735.70
2019-03-13T18:10:26.945Z,94730.19
2019-03-13T18:12:55.595Z,94727.21
2019-03-13T18:15:24.214Z,94731.82
2019-03-13T18:17:52.768Z,94720.46
2019-03-13T18:20:23.856Z,94717.89
2019-03-13T18:22:52.608Z,94720.86
2019-03-13T18:25:21.381Z,94725.89
2019-03-13T18:27:50.062Z,94725.44
2019-03-13T18:30:23.873Z,94723.34
2019-03-13T18:32:52.587Z,94722.48
2019-03-13T18:35:21.872Z,94725.41
2019-03-13T18:37:51.003Z,94720.77
2019-03-13T18:40:21.013Z,94717.36
2019-03-13T18:42:50.019Z,94718.61
2019-03-13T18:45:24.094Z,94724.89
2019-03-13T18:47:53.494Z,94721.11
2019-03-13T18:50:22.986Z,94716.48
2019-03-13T18:52:52.126Z,94713.09
2019-03-13T18:55:28.999Z,94713.92
2019-03-13T18:57:57.683Z,94712.64
2019-03-13T19:00:34.928Z,94719.77
2019-03-13T19:03:04.427Z,94713.44
2019-03-13T19:05:40.090Z,94715.96
2019-03-13T19:08:08.709Z,94713.84
2019-03-13T19:10:37.688Z,94711.72
2019-03-13T19:13:06.690Z,94711.70
2019-03-13T19:15:35.312Z,94710.84
2019-03-13T19:18:04.457Z,94711.69
2019-03-13T19:20:35.248Z,94704.93
2019-03-13T19:23:03.804Z,94702.80
2019-03-13T19:25:32.491Z,94703.61
2019-03-13T19:28:01.403Z,94705.69
2019-03-13T19:30:37.863Z,94705.70
2019-03-13T19:33:05.915Z,94707.77
2019-03-13T19:35:34.550Z,94701.85
2019-03-13T19:38:08.950Z,94703.53
2019-03-13T19:40:37.632Z,94711.95
2019-03-13T19:43:06.334Z,94712.77
2019-03-13T19:45:37.965Z,94711.50
2019-03-13T19:48:06.869Z,94710.23
2019-03-13T19:50:35.583Z,94707.71
2019-03-13T19:53:04.452Z,94708.16
2019-03-13T19:55:33.077Z,94704.40
2019-03-13T19:58:01.699Z,94706.50
2019-03-13T20:00:30.336Z,94709.44
2019-03-13T20:03:01.877Z,94712.41
2019-03-13T20:05:30.488Z,94712.83
2019-03-13T20:08:00.083Z,94712.84
2019-03-13T20:10:32.166Z,94712.42
2019-03-13T20:13:00.842Z,94715.39
2019-03-13T20:15:31.540Z,94717.08
2019-03-13T20:18:00.200Z,94713.69
2019-03-13T20:20:29.107Z,94713.66
2019-03-13T20:23:06.266Z,94709.88
2019-03-13T20:25:34.864Z,94711.56
2019-03-13T20:28:03.808Z,94704.81
2019-03-13T20:30:32.552Z,94707.77
2019-03-13T20:33:01.403Z,94709.84
2019-03-13T20:35:29.973Z,94706.45
2019-03-13T20:37:58.659Z,94710.23
2019-03-13T20:40:27.904Z,94709.84
2019-03-13T20:42:56.568Z,94712.83
2019-03-13T20:45:30.444Z,94703.13
2019-03-13T20:47:59.476Z,94703.55
2019-03-13T20:50:36.675Z,94702.69
2019-03-13T20:52:58.665Z,94696.41
2019-03-13T20:55:27.280Z,94700.16
2019-03-13T20:58:00.627Z,94692.16
2019-03-13T21:00:27.575Z,94687.52
2019-03-13T21:02:59.660Z,94682.86
2019-03-13T21:05:28.312Z,94687.49
2019-03-13T21:07:57.054Z,94681.16
2019-03-13T21:10:25.757Z,94681.57
2019-03-13T21:12:54.533Z,94684.48
2019-03-13T21:15:29.422Z,94680.69
2019-03-13T21:17:58.154Z,94673.48
2019-03-13T21:20:27.066Z,94672.63
2019-03-13T21:22:58.252Z,94669.64
2019-03-13T21:25:27.241Z,94664.14
2019-03-13T21:27:55.887Z,94670.82
2019-03-13T21:30:28.650Z,94667.02
2019-03-13T21:32:57.588Z,94662.77
2019-03-13T21:35:27.674Z,94659.43
2019-03-13T21:37:56.600Z,94657.33
2019-03-13T21:40:26.352Z,94664.02
2019-03-13T21:42:55.540Z,94667.41
2019-03-13T21:45:24.809Z,94659.43
2019-03-13T21:47:53.517Z,94656.88
2019-03-13T21:50:27.442Z,94659.83
2019-03-13T21:52:56.137Z,94656.47
2019-03-13T21:55:27.371Z,94661.94
2019-03-13T21:57:57.725Z,94661.94
2019-03-13T22:00:31.260Z,94661.48
2019-03-13T22:02:59.474Z,94660.63
2019-03-13T22:05:28.127Z,94665.62
2019-03-13T22:07:56.817Z,94660.97
2019-03-13T22:10:33.237Z,94652.97
2019-03-13T22:13:01.904Z,94666.02
2019-03-13T22:15:30.647Z,94667.67
2019-03-13T22:17:59.280Z,94656.33
2019-03-13T22:20:27.945Z,94659.66
2019-03-13T22:22:56.596Z,94657.17
2019-03-13T22:25:25.185Z,94656.75
2019-03-13T22:27:53.870Z,94653.39
2019-03-13T22:30:28.406Z,94649.97
2019-03-13T22:32:54.843Z,94652.90
2019-03-13T22:35:23.486Z,94649.06
2019-03-13T22:37:52.183Z,94646.52
2019-03-13T22:40:21.192Z,94645.27
2019-03-13T22:42:49.914Z,94641.45
2019-03-13T22:45:20.733Z,94642.28
2019-03-13T22:47:49.467Z,94645.24
2019-03-13T22:50:20.186Z,94645.24
2019-03-13T22:52:48.840Z,94643.55
2019-03-13T22:55:17.846Z,94641.88
2019-03-13T22:57:46.549Z,94638.07
2019-03-13T23:00:28.790Z,94640.14
2019-03-13T23:02:57.507Z,94643.09
2019-03-13T23:05:29.499Z,94644.34
2019-03-13T23:07:58.352Z,94638.44
2019-03-13T23:10:32.346Z,94643.09
2019-03-13T23:13:01.064Z,94642.28
2019-03-13T23:15:29.813Z,94641.06
2019-03-13T23:17:58.609Z,94634.76
2019-03-13T23:20:27.257Z,94629.34
2019-03-13T23:22:55.957Z,94630.19
2019-03-13T23:25:24.560Z,94634.41
2019-03-13T23:27:53.344Z,94633.59
2019-03-13T23:30:21.919Z,94642.41
2019-03-13T23:32:50.538Z,94642.44
2019-03-13T23:35:19.144Z,94631.11
2019-03-13T23:37:47.819Z,94628.64
2019-03-13T23:40:16.536Z,94628.63
2019-03-13T23:42:46.640Z,94629.08
2019-03-13T23:45:15.247Z,94628.69
2019-03-13T23:47:43.851Z,94627.03
2019-03-13T23:50:13.849Z,94630.83
2019-03-13T23:52:42.597Z,94632.11
2019-03-13T23:55:12.192Z,94628.77
2019-03-13T23:57:40.845Z,94630.45
